Time;durP1;ratioP1;P1;durP2;ratioP2;P2;SDS_P1;SDS_P2;PMS_P1;PMS_P2;Temp;Humidity;BMP_temperature;BMP_pressure;BME280_temperature;BME280_humidity;BME280_pressure;Samples;Min_cycle;Max_cycle;Signal;HPM_P1;HPM_P2
2023/10/18 00:01:31;;;;;;;11.45;8.98;;;6.30;99.90;;;;;;5078371;28;20049;-33
2023/10/18 00:03:56;;;;;;;11.73;9.40;;;6.30;99.90;;;;;;5085419;28;20051;-33
2023/10/18 00:06:23;;;;;;;12.30;11.00;;;6.30;99.90;;;;;;5083260;28;20055;-33
2023/10/18 00:08:57;;;;;;;11.55;8.27;;;6.30;99.90;;;;;;5082705;28;20527;-33
2023/10/18 00:11:27;;;;;;;13.13;11.43;;;6.30;99.90;;;;;;5081771;28;20113;-33
2023/10/18 00:13:53;;;;;;;11.27;10.05;;;6.30;99.90;;;;;;5079999;28;20580;-35
2023/10/18 00:16:21;;;;;;;10.05;8.50;;;6.20;99.90;;;;;;5082053;28;20126;-33
2023/10/18 00:18:47;;;;;;;15.40;13.63;;;6.20;99.90;;;;;;5079399;28;20036;-33
2023/10/18 00:21:13;;;;;;;13.70;12.18;;;6.20;99.90;;;;;;5076535;28;20134;-32
2023/10/18 00:23:39;;;;;;;12.20;10.07;;;6.20;99.90;;;;;;5070413;28;20040;-33
2023/10/18 00:26:09;;;;;;;13.25;11.85;;;6.20;99.90;;;;;;5061947;28;20137;-33
2023/10/18 00:28:39;;;;;;;15.32;13.68;;;6.20;99.90;;;;;;5068692;28;20521;-33
2023/10/18 00:31:17;;;;;;;15.30;13.65;;;6.10;99.90;;;;;;5061769;28;20597;-33
2023/10/18 00:33:44;;;;;;;20.23;18.23;;;6.10;99.90;;;;;;5055162;28;20367;-33
2023/10/18 00:36:11;;;;;;;21.08;19.13;;;6.00;99.90;;;;;;5070282;28;20445;-33
2023/10/18 00:38:40;;;;;;;20.83;19.23;;;6.00;99.90;;;;;;5065603;28;20502;-33
2023/10/18 00:41:10;;;;;;;27.27;25.23;;;6.00;99.90;;;;;;5061514;28;20087;-33
2023/10/18 00:43:36;;;;;;;27.63;25.40;;;6.00;99.90;;;;;;5066557;28;20056;-33
2023/10/18 00:46:06;;;;;;;29.33;27.23;;;6.00;99.90;;;;;;5062211;28;20509;-33
2023/10/18 00:48:33;;;;;;;30.73;28.33;;;6.00;99.90;;;;;;5062649;28;20136;-33
2023/10/18 00:50:59;;;;;;;26.85;24.67;;;6.00;99.90;;;;;;5044475;28;20045;-33
2023/10/18 00:53:26;;;;;;;26.10;23.85;;;6.00;99.90;;;;;;5064679;28;20410;-33
2023/10/18 00:55:59;;;;;;;26.02;23.92;;;6.00;99.90;;;;;;5059923;28;20056;-33
2023/10/18 00:58:25;;;;;;;32.90;29.88;;;6.00;99.90;;;;;;5062842;28;20742;-33
2023/10/18 01:00:51;;;;;;;25.33;23.27;;;6.00;99.90;;;;;;5066577;28;20060;-33
2023/10/18 01:03:29;;;;;;;26.88;24.73;;;6.00;99.90;;;;;;5046703;28;20079;-33
2023/10/18 01:06:00;;;;;;;24.55;22.17;;;5.90;99.90;;;;;;5065302;28;20040;-33
2023/10/18 01:08:29;;;;;;;26.42;24.27;;;6.00;99.90;;;;;;5058274;28;20083;-33
2023/10/18 01:11:07;;;;;;;32.10;29.45;;;5.90;99.90;;;;;;5062595;28;20101;-33
2023/10/18 01:13:47;;;;;;;26.77;24.50;;;5.90;99.90;;;;;;5059231;28;20048;-33
2023/10/18 01:16:15;;;;;;;29.15;26.75;;;5.90;99.90;;;;;;5051585;28;20045;-34
2023/10/18 01:18:47;;;;;;;26.65;24.40;;;5.90;99.90;;;;;;5052158;28;20403;-33
2023/10/18 01:21:16;;;;;;;28.35;26.05;;;5.90;99.90;;;;;;5052792;28;20053;-33
2023/10/18 01:23:50;;;;;;;21.15;19.00;;;5.90;99.90;;;;;;5060194;28;20048;-33
2023/10/18 01:26:18;;;;;;;19.17;17.02;;;5.90;99.90;;;;;;5061902;28;20063;-33
2023/10/18 01:28:44;;;;;;;17.05;15.20;;;5.90;99.90;;;;;;5060949;28;20135;-33
2023/10/18 01:31:10;;;;;;;18.08;15.20;;;5.90;99.90;;;;;;5064194;28;20486;-33
2023/10/18 01:33:40;;;;;;;19.52;17.63;;;5.90;99.90;;;;;;5049155;28;20061;-33
2023/10/18 01:36:07;;;;;;;16.00;14.30;;;5.80;99.90;;;;;;5059524;28;20053;-33
2023/10/18 01:38:35;;;;;;;16.90;14.82;;;5.90;99.90;;;;;;5055065;28;20044;-33
2023/10/18 01:41:08;;;;;;;20.95;15.27;;;5.80;99.90;;;;;;5061314;28;20113;-33
2023/10/18 01:43:36;;;;;;;16.95;15.00;;;5.80;99.90;;;;;;5061208;28;20040;-33
2023/10/18 01:46:07;;;;;;;19.42;15.73;;;5.80;99.90;;;;;;5060523;28;20127;-33
2023/10/18 01:48:37;;;;;;;18.95;15.93;;;5.90;99.90;;;;;;5058730;28;20048;-33
2023/10/18 01:51:09;;;;;;;17.90;13.95;;;5.80;99.90;;;;;;5062181;28;20125;-33
2023/10/18 01:53:37;;;;;;;19.35;15.70;;;5.80;99.90;;;;;;5043515;28;20425;-33
2023/10/18 01:56:03;;;;;;;19.70;13.93;;;5.80;99.90;;;;;;5059468;28;20189;-33
2023/10/18 01:58:30;;;;;;;19.23;14.52;;;5.80;99.90;;;;;;5059227;28;20486;-34
2023/10/18 02:00:56;;;;;;;18.52;13.65;;;5.80;99.90;;;;;;5062809;28;20127;-34
2023/10/18 02:03:23;;;;;;;17.73;12.32;;;5.90;99.90;;;;;;5056729;28;20052;-34
2023/10/18 02:05:49;;;;;;;18.95;13.43;;;5.80;99.90;;;;;;5063385;28;20048;-33
2023/10/18 02:08:15;;;;;;;16.90;12.18;;;5.80;99.90;;;;;;5059429;28;20079;-34
2023/10/18 02:10:45;;;;;;;17.63;12.30;;;5.90;99.90;;;;;;5052058;28;20132;-34
2023/10/18 02:13:13;;;;;;;19.60;13.27;;;5.80;99.90;;;;;;5064724;28;20052;-34
2023/10/18 02:15:40;;;;;;;15.35;12.02;;;5.80;99.90;;;;;;5051661;28;20049;-34
2023/10/18 02:18:07;;;;;;;18.52;12.82;;;5.80;99.90;;;;;;5047291;28;20049;-34
2023/10/18 02:20:58;;;;;;;16.95;13.85;;;5.80;99.90;;;;;;5032991;28;20064;-34
2023/10/18 02:23:23;;;;;;;18.05;15.20;;;5.80;99.90;;;;;;5055663;28;20056;-34
2023/10/18 02:25:49;;;;;;;18.23;13.75;;;5.80;99.90;;;;;;5060783;28;20045;-34
2023/10/18 02:28:28;;;;;;;15.93;13.88;;;5.80;99.90;;;;;;5060502;28;20581;-34
2023/10/18 02:31:13;;;;;;;19.88;14.18;;;5.80;99.90;;;;;;5044469;28;20060;-33
2023/10/18 02:33:45;;;;;;;18.85;15.13;;;5.80;99.90;;;;;;5065628;28;20048;-34
2023/10/18 02:36:11;;;;;;;21.17;16.23;;;5.80;99.90;;;;;;5068650;28;20509;-34
2023/10/18 02:38:41;;;;;;;19.00;14.90;;;5.80;99.90;;;;;;5066301;28;20052;-34
2023/10/18 02:41:26;;;;;;;20.90;16.38;;;5.80;99.90;;;;;;5064760;28;20059;-34
2023/10/18 02:43:54;;;;;;;21.83;18.50;;;5.80;99.90;;;;;;5057042;28;20047;-34
2023/10/18 02:46:23;;;;;;;19.08;16.88;;;5.70;99.90;;;;;;5064229;28;20471;-34
2023/10/18 02:48:53;;;;;;;20.85;17.00;;;5.70;99.90;;;;;;5064557;28;20490;-33
2023/10/18 02:51:26;;;;;;;25.63;19.58;;;5.70;99.90;;;;;;5063378;28;20611;-33
2023/10/18 02:53:53;;;;;;;23.75;19.92;;;5.70;99.90;;;;;;5066510;28;20060;-34
2023/10/18 02:56:37;;;;;;;22.33;19.42;;;5.70;99.90;;;;;;5062182;28;20094;-34
2023/10/18 02:59:10;;;;;;;24.00;20.40;;;5.80;99.90;;;;;;5064797;28;20115;-33
2023/10/18 03:01:40;;;;;;;22.45;19.80;;;5.80;99.90;;;;;;5065106;28;20048;-34
2023/10/18 03:04:09;;;;;;;23.38;20.17;;;5.80;99.90;;;;;;5062141;28;20092;-34
2023/10/18 03:06:35;;;;;;;21.33;18.17;;;5.80;99.90;;;;;;5046955;28;20044;-34
2023/10/18 03:09:03;;;;;;;24.25;18.65;;;5.80;99.90;;;;;;5062192;28;21595;-34
2023/10/18 03:11:31;;;;;;;22.25;16.70;;;5.70;99.90;;;;;;5059055;28;20072;-34
2023/10/18 03:13:57;;;;;;;21.95;16.77;;;5.80;99.90;;;;;;5060361;28;20045;-34
2023/10/18 03:16:38;;;;;;;23.70;17.80;;;5.70;99.90;;;;;;5063587;28;20421;-34
2023/10/18 03:19:12;;;;;;;24.58;17.70;;;5.70;99.90;;;;;;5066993;28;20060;-34
2023/10/18 03:21:41;;;;;;;23.50;18.50;;;5.70;99.90;;;;;;5071759;28;20056;-34
2023/10/18 03:24:07;;;;;;;21.95;16.75;;;5.70;99.90;;;;;;5078259;28;20055;-34
2023/10/18 03:26:35;;;;;;;23.30;17.35;;;5.60;99.90;;;;;;5086753;28;20048;-34
2023/10/18 03:29:05;;;;;;;21.67;17.00;;;5.60;99.90;;;;;;5056494;28;20079;-34
2023/10/18 03:31:35;;;;;;;21.05;15.80;;;5.60;99.90;;;;;;5067724;28;20052;-34
2023/10/18 03:34:02;;;;;;;23.33;17.05;;;5.60;99.90;;;;;;5079034;28;20398;-34
2023/10/18 03:36:32;;;;;;;23.35;17.40;;;5.60;99.90;;;;;;5083112;28;20051;-34
2023/10/18 03:39:07;;;;;;;26.45;17.52;;;5.60;99.90;;;;;;5075966;28;20599;-34
2023/10/18 03:41:40;;;;;;;20.80;17.58;;;5.60;99.90;;;;;;5077520;28;20697;-34
2023/10/18 03:44:13;;;;;;;21.92;16.65;;;5.60;99.90;;;;;;5080934;28;20048;-33
2023/10/18 03:46:39;;;;;;;23.08;18.27;;;5.60;99.90;;;;;;5082131;28;20128;-34
2023/10/18 03:49:10;;;;;;;21.77;16.77;;;5.60;99.90;;;;;;5086159;28;20048;-34
2023/10/18 03:51:37;;;;;;;23.17;16.65;;;5.60;99.90;;;;;;5077742;28;20055;-34
2023/10/18 03:54:04;;;;;;;25.20;17.77;;;5.60;99.90;;;;;;5092142;28;20048;-34
2023/10/18 03:56:36;;;;;;;26.27;17.27;;;5.60;99.90;;;;;;5078417;28;20048;-34
2023/10/18 03:59:19;;;;;;;21.88;17.85;;;5.60;99.90;;;;;;5076096;28;20048;-34
2023/10/18 04:02:35;;;;;;;26.85;19.73;;;5.60;99.90;;;;;;5066392;28;20497;-34
2023/10/18 04:04:38;;;;;;;27.13;19.77;;;5.60;99.90;;;;;;5068164;28;20493;-34
2023/10/18 04:07:16;;;;;;;26.13;18.95;;;5.60;99.90;;;;;;5087618;28;20051;-34
2023/10/18 04:12:24;;;;;;;23.95;19.92;;;5.60;99.90;;;;;;5085351;28;20063;-33
2023/10/18 04:14:55;;;;;;;24.83;17.60;;;5.60;99.90;;;;;;5065885;28;20135;-34
2023/10/18 04:17:32;;;;;;;24.50;18.65;;;5.60;99.90;;;;;;5076328;28;20055;-33
2023/10/18 04:20:22;;;;;;;21.25;17.83;;;5.60;99.90;;;;;;5075674;28;20040;-33
2023/10/18 04:22:49;;;;;;;24.02;18.80;;;5.60;99.90;;;;;;5084385;28;20044;-34
2023/10/18 04:25:17;;;;;;;21.30;18.63;;;5.60;99.90;;;;;;5066043;28;20505;-34
2023/10/18 04:27:47;;;;;;;23.80;18.25;;;5.60;99.90;;;;;;5063047;28;20071;-34
2023/10/18 04:30:16;;;;;;;25.92;19.08;;;5.60;99.90;;;;;;5062288;28;20431;-34
2023/10/18 04:32:42;;;;;;;23.58;18.45;;;5.60;99.90;;;;;;5058901;28;20543;-34
2023/10/18 04:35:17;;;;;;;22.67;17.92;;;5.60;99.90;;;;;;5073027;28;20058;-34
2023/10/18 04:37:43;;;;;;;23.35;17.77;;;5.60;99.90;;;;;;5069930;28;20108;-34
2023/10/18 04:40:22;;;;;;;25.73;18.58;;;5.60;99.90;;;;;;5060643;28;20045;-34
2023/10/18 04:42:56;;;;;;;26.40;18.83;;;5.60;99.90;;;;;;5069113;28;20052;-33
2023/10/18 04:45:26;;;;;;;21.92;17.50;;;5.60;99.90;;;;;;5063168;28;20498;-34
2023/10/18 04:48:01;;;;;;;23.15;17.98;;;5.60;99.90;;;;;;5064660;28;20490;-33
2023/10/18 04:50:32;;;;;;;20.95;17.35;;;5.60;99.90;;;;;;5068069;28;20049;-34
2023/10/18 04:53:10;;;;;;;26.95;18.90;;;5.60;99.90;;;;;;5067380;28;20113;-33
2023/10/18 04:55:41;;;;;;;23.02;17.77;;;5.60;99.90;;;;;;5066890;28;20129;-33
2023/10/18 04:58:06;;;;;;;22.88;18.20;;;5.60;99.90;;;;;;5064563;28;20490;-34
2023/10/18 05:00:35;;;;;;;22.45;17.67;;;5.60;99.90;;;;;;5070822;28;20055;-34
2023/10/18 05:03:07;;;;;;;22.50;16.45;;;5.60;99.90;;;;;;5054683;28;20059;-33
2023/10/18 05:05:40;;;;;;;24.20;18.08;;;5.60;99.90;;;;;;5058638;28;20680;-34
2023/10/18 05:08:06;;;;;;;22.40;17.73;;;5.60;99.90;;;;;;5058675;28;20064;-34
2023/10/18 05:10:33;;;;;;;22.70;17.10;;;5.60;99.90;;;;;;5066054;28;20058;-34
2023/10/18 05:13:02;;;;;;;24.05;18.10;;;5.60;99.90;;;;;;5064013;28;20553;-33
2023/10/18 05:15:34;;;;;;;24.52;17.20;;;5.60;99.90;;;;;;5065761;28;20506;-33
2023/10/18 05:18:05;;;;;;;25.05;16.65;;;5.60;99.90;;;;;;5058092;28;20053;-33
2023/10/18 05:23:19;;;;;;;23.75;16.48;;;5.50;99.90;;;;;;5051771;28;20516;-33
2023/10/18 05:25:45;;;;;;;21.85;16.40;;;5.50;99.90;;;;;;5057362;28;20107;-33
2023/10/18 05:28:15;;;;;;;23.27;16.35;;;5.50;99.90;;;;;;5047594;28;20448;-33
2023/10/18 05:38:52;;;;;;;21.55;16.48;;;5.50;99.90;;;;;;5023164;28;20052;-34
2023/10/18 05:43:58;;;;;;;25.90;18.02;;;5.50;99.90;;;;;;5062179;28;20054;-34
2023/10/18 05:46:28;;;;;;;22.50;16.50;;;5.50;99.90;;;;;;5059634;28;20081;-34
2023/10/18 05:48:57;;;;;;;24.38;16.83;;;5.50;99.90;;;;;;5060684;28;21534;-34
2023/10/18 05:51:26;;;;;;;20.98;14.95;;;5.50;99.90;;;;;;5058581;28;20102;-33
2023/10/18 05:53:52;;;;;;;21.02;15.80;;;5.50;99.90;;;;;;5044622;28;20125;-34
2023/10/18 05:56:24;;;;;;;20.17;15.40;;;5.50;99.90;;;;;;5041851;28;20526;-34
2023/10/18 05:59:27;;;;;;;20.90;16.08;;;5.50;99.90;;;;;;5056209;28;20110;-33
2023/10/18 06:01:38;;;;;;;21.15;16.13;;;5.40;99.90;;;;;;5058812;28;20575;-33
2023/10/18 06:04:04;;;;;;;20.83;16.77;;;5.40;99.90;;;;;;5058162;28;20052;-33
2023/10/18 06:06:30;;;;;;;21.65;16.33;;;5.40;99.90;;;;;;5055958;28;20051;-33
2023/10/18 06:08:57;;;;;;;21.70;17.00;;;5.40;99.90;;;;;;5062059;28;20472;-33
2023/10/18 06:11:23;;;;;;;19.90;15.82;;;5.40;99.90;;;;;;5055486;28;20087;-33
2023/10/18 06:13:49;;;;;;;21.05;15.75;;;5.40;99.90;;;;;;5060158;28;20044;-33
2023/10/18 06:16:20;;;;;;;22.75;16.15;;;5.40;99.90;;;;;;5057863;28;20475;-34
2023/10/18 06:18:50;;;;;;;24.33;17.07;;;5.40;99.90;;;;;;5042191;28;20053;-34
2023/10/18 06:21:19;;;;;;;19.70;16.70;;;5.40;99.90;;;;;;5057004;28;20707;-34
2023/10/18 06:23:54;;;;;;;21.95;16.10;;;5.40;99.90;;;;;;5060592;28;20048;-34
2023/10/18 06:26:33;;;;;;;21.70;16.85;;;5.40;99.90;;;;;;5055463;28;20048;-33
2023/10/18 06:29:00;;;;;;;19.83;17.35;;;5.40;99.90;;;;;;5059795;28;20049;-33
2023/10/18 06:31:28;;;;;;;21.52;16.88;;;5.40;99.90;;;;;;5052926;28;20159;-33
2023/10/18 06:33:56;;;;;;;20.15;17.92;;;5.40;99.90;;;;;;5056411;28;20048;-34
2023/10/18 06:36:24;;;;;;;22.35;17.08;;;5.40;99.90;;;;;;5055425;28;20517;-33
2023/10/18 06:38:53;;;;;;;21.30;16.27;;;5.50;99.90;;;;;;5027334;28;20049;-34
2023/10/18 06:41:19;;;;;;;22.52;17.83;;;5.50;99.90;;;;;;5059961;28;20139;-33
2023/10/18 06:43:49;;;;;;;20.38;16.55;;;5.50;99.90;;;;;;5063568;28;20155;-33
2023/10/18 06:46:30;;;;;;;17.85;15.02;;;5.50;99.90;;;;;;5059547;28;20044;-34
2023/10/18 06:48:57;;;;;;;21.50;16.90;;;5.50;99.90;;;;;;5053147;28;20071;-33
2023/10/18 06:51:33;;;;;;;20.05;16.38;;;5.50;99.90;;;;;;5057700;28;20056;-34
2023/10/18 06:54:05;;;;;;;20.42;17.40;;;5.60;99.90;;;;;;5060621;28;20056;-34
2023/10/18 06:56:39;;;;;;;21.27;16.63;;;5.60;99.90;;;;;;5053303;28;20102;-33
2023/10/18 06:59:07;;;;;;;19.20;16.13;;;5.60;99.90;;;;;;5064016;28;20049;-34
2023/10/18 07:01:41;;;;;;;20.88;16.67;;;5.60;99.90;;;;;;5060703;28;20056;-34
2023/10/18 07:04:18;;;;;;;19.75;14.43;;;5.70;99.90;;;;;;5044726;28;20151;-33
2023/10/18 07:06:44;;;;;;;21.70;15.90;;;5.70;99.90;;;;;;5054230;28;20049;-33
2023/10/18 07:09:25;;;;;;;19.42;15.15;;;5.70;99.90;;;;;;5055732;28;20044;-34
2023/10/18 07:11:53;;;;;;;21.13;16.70;;;5.80;99.90;;;;;;5037703;28;20053;-33
2023/10/18 07:14:20;;;;;;;19.10;16.08;;;5.80;99.90;;;;;;5054586;28;20052;-33
2023/10/18 07:16:48;;;;;;;18.58;14.77;;;5.90;99.90;;;;;;5060993;28;20053;-33
2023/10/18 07:19:29;;;;;;;23.90;14.77;;;5.90;99.90;;;;;;5064129;28;20059;-33
2023/10/18 07:22:00;;;;;;;19.35;17.35;;;5.90;99.90;;;;;;5065644;28;20052;-34
2023/10/18 07:24:36;;;;;;;25.10;17.65;;;6.00;99.90;;;;;;5063234;28;20056;-33
2023/10/18 07:27:09;;;;;;;20.25;17.05;;;6.00;99.90;;;;;;5065420;28;20048;-34
2023/10/18 07:29:45;;;;;;;19.67;17.58;;;6.10;99.90;;;;;;5068042;28;20553;-34
2023/10/18 07:32:12;;;;;;;19.70;17.33;;;6.10;99.90;;;;;;5060715;28;20060;-34
2023/10/18 07:34:39;;;;;;;17.92;15.93;;;6.20;99.90;;;;;;5060245;28;20118;-32
2023/10/18 07:37:17;;;;;;;20.33;17.88;;;6.20;99.90;;;;;;5064546;28;20129;-34
2023/10/18 07:39:49;;;;;;;18.98;16.85;;;6.30;99.90;;;;;;5061982;28;20475;-34
2023/10/18 07:42:18;;;;;;;21.33;19.23;;;6.30;99.90;;;;;;5064640;28;20110;-34
2023/10/18 07:44:46;;;;;;;18.65;16.45;;;6.40;99.90;;;;;;5068565;28;20048;-34
2023/10/18 07:47:18;;;;;;;17.65;15.15;;;6.40;99.90;;;;;;5045186;28;20053;-33
2023/10/18 07:49:45;;;;;;;19.73;17.67;;;6.50;99.90;;;;;;5055098;28;20518;-34
2023/10/18 07:52:11;;;;;;;18.73;16.73;;;6.50;99.90;;;;;;5044471;28;20052;-34
2023/10/18 07:54:37;;;;;;;19.58;16.63;;;6.60;99.90;;;;;;5047118;28;20098;-33
2023/10/18 07:57:03;;;;;;;18.65;16.45;;;6.70;99.90;;;;;;5059048;28;20524;-34
2023/10/18 07:59:30;;;;;;;16.90;13.90;;;6.70;99.90;;;;;;5064126;28;20056;-34
2023/10/18 08:04:43;;;;;;;17.52;15.50;;;6.80;99.90;;;;;;5060709;28;20201;-34
2023/10/18 08:07:10;;;;;;;17.75;15.85;;;6.90;99.90;;;;;;5064814;28;20054;-34
2023/10/18 08:09:39;;;;;;;14.77;13.20;;;6.90;99.90;;;;;;5060816;28;20045;-33
2023/10/18 08:12:06;;;;;;;17.08;13.38;;;7.00;99.90;;;;;;5061687;28;20044;-34
2023/10/18 08:14:32;;;;;;;15.60;11.68;;;7.10;99.90;;;;;;5047417;28;20052;-34
2023/10/18 08:17:08;;;;;;;13.95;9.65;;;7.10;99.90;;;;;;5065951;28;20051;-34
2023/10/18 08:19:43;;;;;;;13.57;9.40;;;7.20;99.90;;;;;;5046687;28;20052;-33
2023/10/18 08:24:36;;;;;;;15.55;9.75;;;7.20;99.90;;;;;;5061898;28;20425;-34
2023/10/18 08:27:10;;;;;;;12.55;8.73;;;7.30;99.90;;;;;;5062526;28;20532;-33
2023/10/18 08:29:37;;;;;;;13.95;9.10;;;7.40;99.90;;;;;;5052448;28;20481;-34
2023/10/18 08:32:16;;;;;;;14.50;8.93;;;7.40;99.90;;;;;;5058006;28;20552;-33
2023/10/18 08:34:43;;;;;;;11.88;8.18;;;7.50;99.90;;;;;;5060660;28;20412;-33
2023/10/18 08:37:13;;;;;;;14.27;8.07;;;7.60;99.90;;;;;;5052149;28;20040;-33
2023/10/18 08:39:40;;;;;;;12.52;8.57;;;7.60;99.90;;;;;;5057354;28;20561;-34
2023/10/18 08:42:16;;;;;;;12.57;9.13;;;7.70;99.90;;;;;;5064784;28;20370;-34
2023/10/18 08:44:44;;;;;;;11.98;8.10;;;7.80;99.90;;;;;;5058899;28;20051;-33
2023/10/18 08:49:56;;;;;;;12.75;8.23;;;7.90;99.90;;;;;;5039862;28;20423;-33
2023/10/18 08:52:28;;;;;;;11.68;7.63;;;8.00;99.90;;;;;;5059023;28;20048;-33
2023/10/18 08:54:55;;;;;;;11.13;7.68;;;8.10;99.90;;;;;;5060076;28;20514;-34
2023/10/18 08:57:34;;;;;;;13.15;8.07;;;8.10;99.90;;;;;;5065642;28;20044;-33
2023/10/18 09:03:07;;;;;;;11.88;7.93;;;8.30;99.90;;;;;;5023746;28;20044;-33
2023/10/18 09:05:35;;;;;;;12.07;8.00;;;8.30;99.90;;;;;;5064749;28;20074;-33
2023/10/18 09:08:05;;;;;;;11.45;7.68;;;8.40;99.90;;;;;;5059560;28;20052;-33
2023/10/18 09:10:33;;;;;;;11.25;7.60;;;8.40;99.90;;;;;;5046521;28;20044;-33
2023/10/18 09:13:32;;;;;;;10.15;7.15;;;8.40;99.90;;;;;;5060553;28;20040;-33
2023/10/18 09:18:20;;;;;;;10.90;7.60;;;8.50;99.90;;;;;;5046129;28;20063;-33
2023/10/18 09:20:46;;;;;;;11.68;7.55;;;8.60;99.90;;;;;;5070867;28;20056;-33
2023/10/18 09:23:21;;;;;;;12.57;7.35;;;8.70;99.90;;;;;;5052451;28;20501;-33
2023/10/18 09:25:48;;;;;;;11.55;7.30;;;8.70;99.90;;;;;;5063603;28;20044;-34
2023/10/18 09:28:33;;;;;;;10.40;6.97;;;8.80;99.90;;;;;;5064487;28;20044;-34
2023/10/18 09:31:14;;;;;;;10.52;6.93;;;8.90;99.90;;;;;;5065776;28;20398;-33
2023/10/18 09:33:58;;;;;;;13.38;6.78;;;8.90;99.90;;;;;;5061628;28;20513;-33
2023/10/18 09:36:24;;;;;;;9.82;6.90;;;8.90;99.90;;;;;;5062974;28;20493;-34
2023/10/18 09:38:54;;;;;;;9.80;6.68;;;9.00;99.90;;;;;;5061807;28;20059;-33
2023/10/18 09:41:21;;;;;;;11.23;6.72;;;9.00;99.90;;;;;;5068929;28;20056;-33
2023/10/18 09:43:47;;;;;;;10.60;6.85;;;9.10;99.90;;;;;;5063961;28;20486;-33
2023/10/18 09:46:14;;;;;;;9.75;6.78;;;9.10;99.90;;;;;;5059539;28;20041;-33
2023/10/18 09:48:45;;;;;;;10.60;6.97;;;9.20;99.90;;;;;;5052950;28;20057;-33
2023/10/18 09:51:15;;;;;;;11.23;6.63;;;9.20;99.90;;;;;;5066333;28;20071;-33
2023/10/18 09:53:49;;;;;;;12.80;7.18;;;9.30;99.90;;;;;;5056548;28;20059;-33
2023/10/18 09:56:19;;;;;;;9.70;6.38;;;9.40;99.90;;;;;;5052193;28;20071;-34
2023/10/18 09:58:51;;;;;;;9.90;6.38;;;9.40;99.90;;;;;;5046935;28;20655;-34
2023/10/18 10:01:28;;;;;;;10.52;6.55;;;9.40;99.90;;;;;;5063313;28;20071;-34
2023/10/18 10:04:01;;;;;;;11.13;6.53;;;9.50;99.90;;;;;;5040727;28;20460;-33
2023/10/18 10:06:28;;;;;;;8.82;5.95;;;9.50;99.90;;;;;;5060152;28;20049;-33
2023/10/18 10:11:37;;;;;;;9.10;6.45;;;9.70;99.90;;;;;;5061054;28;20051;-33
2023/10/18 10:14:07;;;;;;;8.43;5.93;;;9.80;99.90;;;;;;5060443;28;20048;-33
2023/10/18 10:16:34;;;;;;;9.65;5.93;;;9.80;99.90;;;;;;5041605;28;20132;-33
2023/10/18 10:19:13;;;;;;;9.27;5.97;;;10.00;99.90;;;;;;5057429;28;20052;-35
2023/10/18 10:21:41;;;;;;;8.05;5.43;;;10.00;99.90;;;;;;5062250;28;20109;-33
2023/10/18 10:26:51;;;;;;;8.40;5.47;;;10.10;99.90;;;;;;5060604;28;20056;-33
2023/10/18 10:32:05;;;;;;;8.77;5.65;;;10.20;99.90;;;;;;5065603;28;20044;-33
2023/10/18 10:34:36;;;;;;;9.95;5.72;;;10.30;99.90;;;;;;5072193;28;20070;-34
2023/10/18 10:37:12;;;;;;;11.60;5.30;;;10.30;99.90;;;;;;5069954;28;20052;-33
2023/10/18 10:42:44;;;;;;;8.15;4.80;;;10.30;99.90;;;;;;5035986;28;20063;-47
2023/10/18 10:47:50;;;;;;;7.85;5.22;;;10.40;99.90;;;;;;5063621;28;20143;-32
2023/10/18 10:50:45;;;;;;;8.73;5.95;;;10.40;99.90;;;;;;5065256;28;20049;-33
2023/10/18 10:53:28;;;;;;;8.60;5.93;;;10.50;99.90;;;;;;5066872;28;20068;-33
2023/10/18 10:55:54;;;;;;;9.38;5.70;;;10.50;99.90;;;;;;5049849;28;20198;-33
2023/10/18 10:58:22;;;;;;;8.07;5.45;;;10.70;99.90;;;;;;5070327;28;22297;-35
2023/10/18 11:01:07;;;;;;;8.93;5.50;;;10.70;99.90;;;;;;5062994;28;20122;-33
2023/10/18 11:03:55;;;;;;;8.05;5.28;;;10.90;99.90;;;;;;5064584;28;20048;-34
2023/10/18 11:06:25;;;;;;;7.68;5.25;;;11.00;99.90;;;;;;5065161;28;20388;-33
2023/10/18 11:08:52;;;;;;;8.98;5.43;;;11.10;99.90;;;;;;5062622;28;20482;-34
2023/10/18 11:11:21;;;;;;;8.60;5.15;;;11.20;99.90;;;;;;5062616;28;20169;-34
2023/10/18 11:13:50;;;;;;;8.68;4.95;;;11.30;99.90;;;;;;5066192;28;20083;-34
2023/10/18 11:16:22;;;;;;;6.82;5.07;;;11.40;99.90;;;;;;5067183;28;20049;-33
2023/10/18 11:18:49;;;;;;;10.00;5.97;;;11.50;99.90;;;;;;5070186;28;20106;-33
2023/10/18 11:21:29;;;;;;;7.90;5.20;;;11.50;99.90;;;;;;5060968;28;20052;-33
2023/10/18 11:24:04;;;;;;;9.40;4.50;;;11.60;99.90;;;;;;5063168;28;20097;-33
2023/10/18 11:26:38;;;;;;;8.30;5.03;;;11.60;99.90;;;;;;5061777;28;20087;-33
2023/10/18 11:29:05;;;;;;;9.52;4.85;;;11.80;99.90;;;;;;5061175;28;20553;-33
2023/10/18 11:31:32;;;;;;;9.90;4.20;;;11.90;99.90;;;;;;5063954;28;20079;-33
2023/10/18 11:34:07;;;;;;;7.20;3.92;;;12.00;99.90;;;;;;5059644;28;20080;-33
2023/10/18 11:36:40;;;;;;;10.68;4.22;;;12.20;99.90;;;;;;5053776;28;20477;-33
2023/10/18 11:39:18;;;;;;;6.28;3.92;;;12.30;99.90;;;;;;5057862;28;20513;-33
2023/10/18 11:41:49;;;;;;;9.13;3.83;;;12.50;99.90;;;;;;5070372;28;20087;-34
2023/10/18 11:44:26;;;;;;;7.43;4.15;;;12.60;99.90;;;;;;5051106;28;20048;-34
2023/10/18 11:46:56;;;;;;;6.78;4.10;;;12.80;99.90;;;;;;5067775;28;20071;-33
2023/10/18 11:49:32;;;;;;;7.30;4.45;;;13.10;99.90;;;;;;5065097;28;20057;-33
2023/10/18 11:51:58;;;;;;;7.32;3.97;;;13.40;99.90;;;;;;5054337;28;20494;-34
2023/10/18 11:54:34;;;;;;;6.90;3.65;;;13.70;99.90;;;;;;5056213;28;20072;-35
2023/10/18 11:57:02;;;;;;;8.02;3.83;;;13.90;99.90;;;;;;5066616;28;20052;-35
2023/10/18 11:59:28;;;;;;;8.25;4.00;;;14.10;99.90;;;;;;5069667;28;20052;-33
2023/10/18 12:01:59;;;;;;;6.15;3.95;;;14.20;99.90;;;;;;5059905;28;20414;-33
2023/10/18 12:04:27;;;;;;;7.53;3.40;;;14.30;99.90;;;;;;5063075;28;20060;-33
2023/10/18 12:06:57;;;;;;;5.70;3.35;;;14.40;99.90;;;;;;5055422;28;20044;-34
2023/10/18 12:09:25;;;;;;;5.90;3.50;;;14.30;99.90;;;;;;5066454;28;20059;-34
2023/10/18 12:11:52;;;;;;;6.90;3.80;;;14.40;99.90;;;;;;5066433;28;20056;-33
2023/10/18 12:14:18;;;;;;;6.57;3.47;;;14.50;99.90;;;;;;5039296;28;20126;-34
2023/10/18 12:16:44;;;;;;;6.63;3.50;;;14.60;99.90;;;;;;5060027;28;20101;-34
2023/10/18 12:19:10;;;;;;;8.27;3.08;;;14.80;99.90;;;;;;5063219;28;20120;-34
2023/10/18 12:21:39;;;;;;;6.47;3.58;;;14.90;99.90;;;;;;5057805;28;20109;-34
2023/10/18 12:24:07;;;;;;;6.45;3.75;;;14.90;99.90;;;;;;5052442;28;20061;-34
2023/10/18 12:26:34;;;;;;;7.03;3.40;;;15.00;99.90;;;;;;5056187;28;20575;-34
2023/10/18 12:29:06;;;;;;;6.57;3.45;;;15.10;99.90;;;;;;5049916;28;20482;-50
2023/10/18 12:31:41;;;;;;;6.07;3.30;;;15.20;99.90;;;;;;5035620;28;20051;-33
2023/10/18 12:34:08;;;;;;;5.43;3.28;;;15.30;99.90;;;;;;5055416;28;20045;-34
2023/10/18 12:36:49;;;;;;;5.32;3.30;;;15.50;99.90;;;;;;5061969;28;20049;-34
2023/10/18 12:39:20;;;;;;;9.35;2.90;;;15.70;99.90;;;;;;5054430;28;20135;-34
2023/10/18 12:41:52;;;;;;;6.60;3.30;;;15.90;99.90;;;;;;5059829;28;20052;-33
2023/10/18 12:44:18;;;;;;;6.13;3.30;;;16.20;99.90;;;;;;5060619;28;20056;-34
2023/10/18 12:46:45;;;;;;;7.35;3.67;;;16.40;99.90;;;;;;5056423;28;20072;-34
2023/10/18 12:49:11;;;;;;;7.03;3.97;;;16.50;99.90;;;;;;5049008;28;20055;-42
2023/10/18 12:51:57;;;;;;;5.88;3.47;;;16.50;99.90;;;;;;5056871;28;20143;-34
2023/10/18 12:54:29;;;;;;;6.05;3.33;;;16.60;99.90;;;;;;5059202;28;20440;-34
2023/10/18 12:56:58;;;;;;;6.38;3.17;;;16.80;99.90;;;;;;5052050;28;20478;-34
2023/10/18 12:59:24;;;;;;;4.80;3.03;;;17.00;99.90;;;;;;5055920;28;20528;-34
2023/10/18 13:01:50;;;;;;;4.75;2.88;;;17.10;99.90;;;;;;5052141;28;20131;-34
2023/10/18 13:04:19;;;;;;;6.43;2.90;;;17.20;99.90;;;;;;5047593;28;20056;-33
2023/10/18 13:06:46;;;;;;;5.18;3.00;;;17.40;99.90;;;;;;5059573;28;20049;-34
2023/10/18 13:09:15;;;;;;;4.70;3.10;;;17.70;99.90;;;;;;5056728;28;20053;-34
2023/10/18 13:12:00;;;;;;;4.80;2.75;;;18.00;99.90;;;;;;5059880;28;20049;-34
2023/10/18 13:14:35;;;;;;;5.45;3.10;;;18.30;99.90;;;;;;5053999;28;20060;-34
2023/10/18 13:17:10;;;;;;;6.28;3.03;;;18.40;99.90;;;;;;5057057;28;20051;-34
2023/10/18 13:19:41;;;;;;;8.07;3.42;;;18.70;99.90;;;;;;5056333;28;20052;-34
2023/10/18 13:22:17;;;;;;;7.53;3.17;;;18.80;99.90;;;;;;5060480;28;20067;-34
2023/10/18 13:24:43;;;;;;;8.07;2.90;;;18.80;99.90;;;;;;5057871;28;20044;-34
2023/10/18 13:27:09;;;;;;;6.82;3.47;;;18.50;99.90;;;;;;5059692;28;20151;-34
2023/10/18 13:29:35;;;;;;;6.43;3.22;;;18.20;99.90;;;;;;5058646;28;20123;-33
2023/10/18 13:32:11;;;;;;;4.90;3.28;;;18.10;99.90;;;;;;5061267;28;20658;-33
2023/10/18 13:34:42;;;;;;;8.52;3.00;;;18.10;99.90;;;;;;5056601;28;20051;-33
2023/10/18 13:37:12;;;;;;;6.50;3.10;;;18.20;99.90;;;;;;5050574;28;20490;-33
2023/10/18 13:39:42;;;;;;;5.20;2.90;;;18.20;99.90;;;;;;5054383;28;20054;-33
2023/10/18 13:42:11;;;;;;;5.07;3.28;;;18.10;99.90;;;;;;5056599;28;20084;-34